Главная страница
METAR-TAF:

METAR-TAF

Аэропорты :

Pottstown Limerick Airport

Pottstown, Пенсильвания, США

широта: 40-14-18N, долгота: 075-33-26W, высота над уровнем моря: 89 м

Текущие метеонаблюдения

Эта сводка был подготовлена 58 минут назад, в 12:54 UTC
Штиль
Температура -7°C
Влажность 86%
Давление 1034 hPa
Видимость: 11.3 км
ясное небо

METAR: KPTW 081254Z AUTO 00000KT 7SM CLR M07/M09 A3054 RMK AO2 SLP343 T10721089

Время: 08:52 (13:52 UTC)


TAF: отсутствует

Метеонаблюдения и прогнозы для более 4000 аэропортов (сводки METAR и TAF).

Имеющиеся станции представлены на карте желтыми и красными точками.

Чтобы увидеть название станции, наведите на нее мышь.

Затем щелкните, чтобы увидеть метеонаблюдения и метеопрогнозы.

Управление картой: чтобы увеличить масштаб, щелкните зеленые кнопки с черным крестиком; чтобы уменьшить масштаб, щелкните зеленую кнопку с тире; для просмотра соседних карт щелкайте зеленые стрелки.


METAR-TAF: